Time;durP1;ratioP1;P1;durP2;ratioP2;P2;SDS_P1;SDS_P2;PMS_P1;PMS_P2;Temp;Humidity;BMP_temperature;BMP_pressure;BME280_temperature;BME280_humidity;BME280_pressure;Samples;Min_cycle;Max_cycle;Signal;HPM_P1;HPM_P2
2023/10/11 00:03:05;;;;;;;177.97;167.07;;;16.40;99.90;;;;;;5048736;28;20310;-72
2023/10/11 00:05:39;;;;;;;144.73;134.77;;;16.40;99.90;;;;;;5051458;28;20287;-71
2023/10/11 00:08:07;;;;;;;152.85;142.43;;;16.40;99.90;;;;;;5052793;28;20278;-71
2023/10/11 00:10:35;;;;;;;151.07;141.07;;;16.40;99.90;;;;;;5051587;28;20419;-71
2023/10/11 00:13:03;;;;;;;151.37;141.07;;;16.40;99.90;;;;;;5053191;28;20279;-71
2023/10/11 00:15:29;;;;;;;134.47;125.10;;;16.40;99.90;;;;;;5047666;28;20290;-71
2023/10/11 00:17:55;;;;;;;141.43;131.50;;;16.40;99.90;;;;;;5053577;28;20293;-71
2023/10/11 00:23:21;;;;;;;161.80;150.67;;;16.40;99.90;;;;;;5028200;28;20330;-72
2023/10/11 00:25:50;;;;;;;180.50;169.17;;;16.40;99.90;;;;;;5048683;28;20283;-72
2023/10/11 00:28:16;;;;;;;163.30;153.23;;;16.40;99.90;;;;;;5046379;28;20343;-72
2023/10/11 00:30:46;;;;;;;135.63;126.30;;;16.40;99.90;;;;;;5048487;28;20286;-72
2023/10/11 00:33:13;;;;;;;127.93;118.27;;;16.40;99.90;;;;;;5048599;28;20290;-71
2023/10/11 00:35:54;;;;;;;123.83;115.47;;;16.40;99.90;;;;;;5039809;28;20440;-72
2023/10/11 00:38:27;;;;;;;128.67;119.40;;;16.40;99.90;;;;;;5038076;28;20647;-72
2023/10/11 00:43:34;;;;;;;117.80;109.40;;;16.40;99.90;;;;;;5049823;28;20394;-72
2023/10/11 00:46:02;;;;;;;130.50;121.33;;;16.40;99.90;;;;;;5051104;28;20280;-72
2023/10/11 00:48:30;;;;;;;139.13;129.73;;;16.40;99.90;;;;;;5049854;28;20279;-72
2023/10/11 00:50:56;;;;;;;114.47;106.30;;;16.40;99.90;;;;;;5036341;28;20805;-72
2023/10/11 00:53:26;;;;;;;126.40;117.53;;;16.40;99.90;;;;;;5050558;28;20808;-72
2023/10/11 00:55:55;;;;;;;129.70;121.27;;;16.40;99.90;;;;;;5051355;28;20294;-72
2023/10/11 00:58:22;;;;;;;128.73;119.33;;;16.40;99.90;;;;;;5043435;28;20289;-72
2023/10/11 01:00:49;;;;;;;128.73;119.70;;;16.40;99.90;;;;;;5044896;28;20297;-72
2023/10/11 01:03:15;;;;;;;146.80;136.90;;;16.40;99.90;;;;;;5049420;28;20301;-72
2023/10/11 01:05:45;;;;;;;128.10;118.73;;;16.40;99.90;;;;;;5040918;28;20291;-72
2023/10/11 01:08:11;;;;;;;135.23;126.13;;;16.40;99.90;;;;;;5048044;28;20041;-72
2023/10/11 01:10:38;;;;;;;127.83;118.70;;;16.40;99.90;;;;;;5048462;28;20285;-72
2023/10/11 01:13:05;;;;;;;131.53;122.70;;;16.30;99.90;;;;;;5047363;28;20245;-72
2023/10/11 01:15:30;;;;;;;129.27;120.90;;;16.30;99.90;;;;;;5046658;28;20299;-72
2023/10/11 01:17:56;;;;;;;258.03;239.50;;;16.30;99.90;;;;;;5051535;28;20294;-72
2023/10/11 01:20:22;;;;;;;224.13;207.03;;;16.40;99.90;;;;;;5030467;28;20040;-72
2023/10/11 01:22:48;;;;;;;143.27;133.40;;;16.30;99.90;;;;;;5045713;28;20036;-72
2023/10/11 01:25:22;;;;;;;77.50;71.07;;;16.30;99.90;;;;;;5052440;28;20049;-72
2023/10/11 01:27:48;;;;;;;90.65;83.10;;;16.30;99.90;;;;;;5044708;28;20345;-72
2023/10/11 01:30:15;;;;;;;104.17;96.53;;;16.30;99.90;;;;;;5035304;28;20036;-72
2023/10/11 01:32:41;;;;;;;81.20;74.63;;;16.30;99.90;;;;;;5048407;28;20524;-71
2023/10/11 01:35:12;;;;;;;87.37;80.23;;;16.30;99.90;;;;;;5048851;28;20291;-72
2023/10/11 01:37:44;;;;;;;93.50;86.97;;;16.30;99.90;;;;;;5037713;28;20284;-72
2023/10/11 01:40:20;;;;;;;104.13;95.77;;;16.30;99.90;;;;;;5041421;28;20299;-72
2023/10/11 01:42:50;;;;;;;84.33;77.40;;;16.30;99.90;;;;;;5048138;28;20817;-73
2023/10/11 01:45:17;;;;;;;92.47;84.90;;;16.30;99.90;;;;;;5045155;28;20771;-72
2023/10/11 01:47:46;;;;;;;100.50;93.23;;;16.20;99.90;;;;;;5049130;28;20291;-72
2023/10/11 01:50:15;;;;;;;95.37;88.60;;;16.20;99.90;;;;;;5045381;28;20805;-72
2023/10/11 01:52:42;;;;;;;77.40;70.97;;;16.20;99.90;;;;;;5024617;28;20279;-72
2023/10/11 01:55:13;;;;;;;89.50;82.33;;;16.20;99.90;;;;;;5048812;28;20329;-72
2023/10/11 01:57:41;;;;;;;111.33;103.53;;;16.20;99.90;;;;;;5048862;28;20283;-72
2023/10/11 02:00:13;;;;;;;114.07;106.43;;;16.10;99.90;;;;;;5044567;28;20287;-72
2023/10/11 02:02:45;;;;;;;115.37;107.33;;;16.20;99.90;;;;;;5049652;28;20278;-72
2023/10/11 02:05:18;;;;;;;165.50;154.63;;;16.20;99.90;;;;;;5049939;28;20758;-72
2023/10/11 02:07:44;;;;;;;92.70;86.00;;;16.20;99.90;;;;;;5033883;28;20336;-72
2023/10/11 02:10:13;;;;;;;109.20;101.33;;;16.20;99.90;;;;;;5051443;28;20274;-72
2023/10/11 02:12:45;;;;;;;86.67;80.13;;;16.20;99.90;;;;;;5032713;28;20032;-72
2023/10/11 02:15:29;;;;;;;110.77;102.97;;;16.20;99.90;;;;;;5045992;28;20326;-72
2023/10/11 02:17:58;;;;;;;95.23;87.57;;;16.20;99.90;;;;;;5052234;28;20646;-72
2023/10/11 02:20:24;;;;;;;74.80;69.07;;;16.10;99.90;;;;;;5029967;28;20845;-71
2023/10/11 02:22:51;;;;;;;82.77;76.30;;;16.20;99.90;;;;;;5036862;28;20729;-72
2023/10/11 02:25:24;;;;;;;89.27;82.97;;;16.10;99.90;;;;;;5034394;28;20279;-72
2023/10/11 02:27:51;;;;;;;86.17;80.03;;;16.20;99.90;;;;;;5047445;28;20325;-72
2023/10/11 02:30:22;;;;;;;81.03;74.97;;;16.10;99.90;;;;;;5046429;28;20272;-72
2023/10/11 02:32:53;;;;;;;92.37;85.57;;;16.10;99.90;;;;;;5019828;28;20361;-72
2023/10/11 02:35:20;;;;;;;113.17;105.10;;;16.10;99.90;;;;;;5046178;28;20695;-72
2023/10/11 02:37:46;;;;;;;67.70;61.97;;;16.10;99.90;;;;;;5050444;28;20642;-72
2023/10/11 02:40:16;;;;;;;48.33;43.50;;;16.10;99.90;;;;;;5047563;28;20792;-72
2023/10/11 02:42:49;;;;;;;86.37;80.23;;;16.10;99.90;;;;;;5027341;28;20317;-72
2023/10/11 02:45:19;;;;;;;65.73;60.03;;;16.10;99.90;;;;;;5047247;28;20267;-72
2023/10/11 02:47:59;;;;;;;89.23;83.23;;;16.10;99.90;;;;;;5034647;28;20290;-72
2023/10/11 02:50:25;;;;;;;65.27;59.93;;;16.20;99.90;;;;;;5027255;28;20352;-72
2023/10/11 02:52:59;;;;;;;61.10;55.90;;;16.20;99.90;;;;;;5033049;28;20289;-72
2023/10/11 02:55:25;;;;;;;75.73;69.80;;;16.20;99.90;;;;;;5044922;28;20314;-72
2023/10/11 02:58:06;;;;;;;69.23;64.00;;;16.20;99.90;;;;;;5050708;28;20845;-72
2023/10/11 03:00:33;;;;;;;66.00;60.63;;;16.20;99.90;;;;;;5033686;28;20287;-72
2023/10/11 03:03:00;;;;;;;65.57;60.03;;;16.20;99.90;;;;;;5046564;28;20783;-72
2023/10/11 03:05:27;;;;;;;75.27;69.53;;;16.20;99.90;;;;;;5048854;28;20281;-72
2023/10/11 03:08:16;;;;;;;62.60;57.63;;;16.20;99.90;;;;;;5048124;28;20286;-72
2023/10/11 03:10:53;;;;;;;68.50;62.93;;;16.10;99.90;;;;;;5052533;28;20892;-72
2023/10/11 03:13:24;;;;;;;72.13;65.67;;;16.10;99.90;;;;;;5048182;28;20283;-72
2023/10/11 03:15:56;;;;;;;68.43;62.57;;;16.10;99.90;;;;;;5052653;28;20285;-72
2023/10/11 03:18:27;;;;;;;81.73;75.37;;;16.10;99.90;;;;;;5029346;28;20283;-72
2023/10/11 03:21:16;;;;;;;79.37;73.67;;;16.10;99.90;;;;;;5047571;28;20294;-72
2023/10/11 03:23:43;;;;;;;77.73;71.87;;;16.20;99.90;;;;;;5050694;28;20372;-72
2023/10/11 03:26:16;;;;;;;55.90;51.03;;;16.20;99.90;;;;;;5056165;28;20305;-72
2023/10/11 03:28:43;;;;;;;79.00;73.00;;;16.10;99.90;;;;;;5051307;28;20279;-72
2023/10/11 03:31:12;;;;;;;65.70;59.27;;;16.10;99.90;;;;;;5048176;28;20275;-72
2023/10/11 03:33:40;;;;;;;108.03;100.77;;;16.10;99.90;;;;;;5036537;28;20321;-72
2023/10/11 03:36:17;;;;;;;63.97;58.83;;;16.10;99.90;;;;;;5056032;28;20656;-72
2023/10/11 03:38:51;;;;;;;214.90;200.80;;;16.10;99.90;;;;;;5028464;28;20356;-72
2023/10/11 03:41:28;;;;;;;51.05;45.92;;;16.20;99.90;;;;;;5047499;28;20279;-72
2023/10/11 03:43:54;;;;;;;70.37;64.67;;;16.20;99.90;;;;;;5040379;28;20037;-72
2023/10/11 03:46:28;;;;;;;88.63;82.30;;;16.20;99.90;;;;;;5045782;28;20342;-72
2023/10/11 03:49:13;;;;;;;70.23;65.00;;;16.20;99.90;;;;;;5044382;28;20280;-72
2023/10/11 03:51:43;;;;;;;57.00;52.45;;;16.20;99.90;;;;;;5044852;28;20287;-72
2023/10/11 03:54:13;;;;;;;63.47;58.30;;;16.20;99.90;;;;;;5041735;28;20088;-72
2023/10/11 03:56:45;;;;;;;55.07;50.13;;;16.10;99.90;;;;;;5054663;28;20781;-73
2023/10/11 03:59:13;;;;;;;58.50;53.37;;;16.10;99.90;;;;;;5029488;28;20291;-72
2023/10/11 04:01:38;;;;;;;78.80;73.37;;;16.10;99.90;;;;;;5052403;28;20291;-72
2023/10/11 04:04:05;;;;;;;101.73;95.07;;;16.10;99.90;;;;;;5028007;28;20310;-72
2023/10/11 04:06:34;;;;;;;108.23;100.67;;;16.10;99.90;;;;;;5047017;28;20040;-72
2023/10/11 04:09:03;;;;;;;69.60;64.43;;;16.10;99.90;;;;;;5029152;28;20298;-72
2023/10/11 04:11:54;;;;;;;56.53;50.57;;;16.10;99.90;;;;;;5041986;28;20291;-72
2023/10/11 04:19:48;;;;;;;95.07;88.13;;;16.10;99.90;;;;;;5043244;28;20775;-72
2023/10/11 04:22:17;;;;;;;73.33;67.37;;;16.10;99.90;;;;;;5044008;28;20707;-72
2023/10/11 04:24:45;;;;;;;76.67;70.73;;;16.10;99.90;;;;;;5047152;28;20894;-72
2023/10/11 04:29:47;;;;;;;68.55;63.47;;;16.00;99.90;;;;;;5049224;28;20683;-72
2023/10/11 04:32:14;;;;;;;71.17;65.60;;;16.00;99.90;;;;;;5054317;28;20044;-72
2023/10/11 04:34:55;;;;;;;66.70;61.37;;;16.00;99.90;;;;;;5050241;28;20351;-72
2023/10/11 04:37:43;;;;;;;78.37;72.47;;;16.00;99.90;;;;;;5038870;28;20282;-72
2023/10/11 04:40:23;;;;;;;80.60;74.43;;;16.00;99.90;;;;;;5032510;28;20357;-72
2023/10/11 04:43:04;;;;;;;63.20;57.73;;;16.00;99.90;;;;;;5034768;28;20306;-72
2023/10/11 04:45:44;;;;;;;87.63;81.93;;;16.10;99.90;;;;;;5044921;28;20282;-72
2023/10/11 04:48:14;;;;;;;72.07;66.17;;;16.10;99.90;;;;;;5047230;28;20310;-72
2023/10/11 04:50:44;;;;;;;97.63;90.70;;;16.10;99.90;;;;;;5049396;28;20299;-72
2023/10/11 04:53:17;;;;;;;90.37;82.90;;;16.10;99.90;;;;;;5046631;28;20354;-72
2023/10/11 04:55:58;;;;;;;124.33;115.37;;;16.10;99.90;;;;;;5052283;28;20330;-72
2023/10/11 04:58:42;;;;;;;77.50;71.77;;;16.10;99.90;;;;;;5044093;28;20330;-72
2023/10/11 05:01:11;;;;;;;132.43;123.50;;;16.10;99.90;;;;;;5038969;28;20287;-72
2023/10/11 05:03:38;;;;;;;77.80;71.53;;;16.00;99.90;;;;;;5050648;28;20302;-72
2023/10/11 05:06:14;;;;;;;67.80;62.53;;;16.00;99.90;;;;;;5052297;28;20317;-72
2023/10/11 05:08:54;;;;;;;113.87;106.30;;;16.00;99.90;;;;;;5042995;28;20349;-72
2023/10/11 05:11:36;;;;;;;102.63;95.27;;;15.90;99.90;;;;;;5050893;28;20802;-72
2023/10/11 05:16:49;;;;;;;115.93;108.77;;;15.90;99.90;;;;;;5052055;28;20278;-72
2023/10/11 05:19:20;;;;;;;131.70;123.43;;;15.90;99.90;;;;;;5051601;28;20283;-72
2023/10/11 05:21:52;;;;;;;107.77;100.33;;;15.80;99.90;;;;;;5034982;28;20075;-72
2023/10/11 05:24:44;;;;;;;119.97;111.63;;;15.80;99.90;;;;;;5041352;28;20393;-72
2023/10/11 05:51:39;;;;;;;102.35;95.80;;;15.80;99.90;;;;;;5042679;28;20107;-72
2023/10/11 05:54:11;;;;;;;120.33;113.13;;;15.90;99.90;;;;;;5041784;28;20047;-72
2023/10/11 05:56:45;;;;;;;165.03;153.00;;;15.90;99.90;;;;;;5049366;28;20295;-72
2023/10/11 05:59:13;;;;;;;178.27;167.52;;;15.90;99.90;;;;;;5046754;28;20289;-72
2023/10/11 06:01:43;;;;;;;114.30;107.17;;;16.00;99.90;;;;;;5034199;28;20133;-72
2023/10/11 06:04:08;;;;;;;107.97;101.13;;;16.10;99.90;;;;;;5051564;28;20301;-72
2023/10/11 06:06:46;;;;;;;102.60;95.77;;;16.20;99.90;;;;;;5052894;28;20366;-73
2023/10/11 06:09:18;;;;;;;124.27;116.33;;;16.20;99.90;;;;;;5050942;28;20101;-72
2023/10/11 06:11:50;;;;;;;121.87;114.23;;;16.30;99.90;;;;;;5026317;28;20295;-72
2023/10/11 06:14:19;;;;;;;194.17;183.10;;;16.30;99.90;;;;;;5043439;28;20287;-72
2023/10/11 06:16:57;;;;;;;111.13;103.63;;;16.40;99.90;;;;;;5050770;28;20290;-72
2023/10/11 06:19:26;;;;;;;155.53;146.23;;;16.40;99.90;;;;;;5052640;28;20616;-72
2023/10/11 06:21:56;;;;;;;146.03;136.13;;;16.50;99.90;;;;;;5045804;28;20363;-72
2023/10/11 06:24:30;;;;;;;152.97;143.47;;;16.50;99.90;;;;;;5032490;28;20310;-72
2023/10/11 06:28:09;;;;;;;83.80;77.80;;;16.60;99.90;;;;;;5044376;28;20287;-72
2023/10/11 06:29:45;;;;;;;114.03;106.33;;;16.60;99.90;;;;;;5049331;28;20843;-73
2023/10/11 06:32:12;;;;;;;130.33;122.00;;;16.70;99.90;;;;;;5043748;28;20382;-72
2023/10/11 06:34:38;;;;;;;106.03;99.43;;;16.70;99.90;;;;;;5049378;28;20291;-72
2023/10/11 06:37:06;;;;;;;150.43;140.50;;;16.70;99.90;;;;;;5030468;28;20794;-72
2023/10/11 06:42:12;;;;;;;101.43;94.03;;;16.70;99.90;;;;;;5052809;28;20282;-72
2023/10/11 06:44:49;;;;;;;163.37;153.07;;;16.80;99.90;;;;;;5052749;28;20456;-73
2023/10/11 06:47:18;;;;;;;116.63;109.50;;;16.80;99.90;;;;;;5049297;28;20773;-72
2023/10/11 06:49:48;;;;;;;125.03;116.77;;;16.80;99.90;;;;;;5030108;28;20374;-72
2023/10/11 06:52:17;;;;;;;175.57;165.83;;;16.80;99.90;;;;;;5049179;28;20305;-72
2023/10/11 06:55:07;;;;;;;120.70;112.60;;;16.80;99.90;;;;;;5042636;28;20967;-72
2023/10/11 06:57:39;;;;;;;190.50;177.13;;;16.90;99.90;;;;;;5046091;28;20283;-72
2023/10/11 07:00:21;;;;;;;104.00;97.23;;;16.90;99.90;;;;;;5048149;28;20283;-73
2023/10/11 07:03:06;;;;;;;195.07;183.97;;;16.90;99.90;;;;;;5050588;28;20287;-72
2023/10/11 07:05:56;;;;;;;102.57;95.93;;;17.00;99.90;;;;;;5047870;28;20287;-72
2023/10/11 07:08:34;;;;;;;150.50;141.33;;;17.00;99.70;;;;;;5050667;28;20279;-73
2023/10/11 07:16:21;;;;;;;101.60;94.70;;;17.00;98.90;;;;;;5049128;28;20309;-72
2023/10/11 07:18:48;;;;;;;101.57;94.70;;;17.10;98.70;;;;;;5049999;28;20348;-72
2023/10/11 07:21:19;;;;;;;172.60;162.80;;;17.10;97.90;;;;;;5032088;28;20348;-72
2023/10/11 07:23:56;;;;;;;151.73;142.57;;;17.10;97.40;;;;;;5028331;28;20387;-73
2023/10/11 07:29:02;;;;;;;93.60;87.43;;;17.10;97.70;;;;;;5049280;28;20315;-72
2023/10/11 07:31:33;;;;;;;163.50;153.13;;;17.20;97.80;;;;;;5042125;28;20274;-73
2023/10/11 07:34:06;;;;;;;112.00;104.83;;;17.20;97.00;;;;;;5049253;28;20290;-72
2023/10/11 07:36:37;;;;;;;105.50;99.23;;;17.20;96.80;;;;;;5042070;28;20271;-72
2023/10/11 07:39:14;;;;;;;187.53;177.50;;;17.20;96.40;;;;;;5039827;28;20283;-72
2023/10/11 07:41:43;;;;;;;115.70;108.80;;;17.30;96.50;;;;;;5023381;28;20279;-72
2023/10/11 07:44:10;;;;;;;158.77;150.07;;;17.30;96.80;;;;;;5042967;28;20307;-72
2023/10/11 07:46:40;;;;;;;116.73;109.37;;;17.30;96.70;;;;;;5029887;28;20287;-72
2023/10/11 07:49:06;;;;;;;125.97;118.73;;;17.30;96.90;;;;;;5041458;28;20291;-72
2023/10/11 07:51:39;;;;;;;107.60;101.37;;;17.40;96.50;;;;;;5050264;28;20797;-72
2023/10/11 07:54:16;;;;;;;182.10;170.43;;;17.40;96.20;;;;;;5048540;28;20282;-72
2023/10/11 07:56:46;;;;;;;177.53;165.60;;;17.40;95.80;;;;;;5042838;28;20820;-72
2023/10/11 07:59:12;;;;;;;120.50;113.17;;;17.40;95.40;;;;;;5053744;28;20274;-72
2023/10/11 08:01:44;;;;;;;216.17;198.20;;;17.40;95.40;;;;;;5053620;28;20301;-72
2023/10/11 08:04:21;;;;;;;101.77;96.03;;;17.40;95.10;;;;;;5031143;28;20036;-72
2023/10/11 08:06:50;;;;;;;86.10;80.57;;;17.40;95.50;;;;;;5050885;28;20309;-72
2023/10/11 08:09:21;;;;;;;159.87;149.37;;;17.30;95.10;;;;;;5053015;28;20278;-72
2023/10/11 08:11:52;;;;;;;91.60;86.17;;;17.30;95.00;;;;;;5046819;28;20641;-72
2023/10/11 08:14:22;;;;;;;139.93;132.13;;;17.30;93.70;;;;;;5042428;28;20365;-72
2023/10/11 08:16:52;;;;;;;86.27;81.10;;;17.30;93.60;;;;;;5047234;28;20283;-72
2023/10/11 08:19:18;;;;;;;193.80;180.87;;;17.30;92.70;;;;;;5033455;28;20313;-72
2023/10/11 08:21:54;;;;;;;240.87;224.37;;;17.20;92.60;;;;;;5052481;28;20291;-72
2023/10/11 08:24:25;;;;;;;99.60;94.30;;;17.20;92.60;;;;;;5046174;28;20311;-73
2023/10/11 08:27:05;;;;;;;134.63;127.73;;;17.20;92.30;;;;;;5035169;28;20314;-72
2023/10/11 08:29:32;;;;;;;108.90;103.27;;;17.10;92.20;;;;;;5032200;28;20731;-72
2023/10/11 08:31:59;;;;;;;123.30;115.97;;;17.10;91.90;;;;;;5054714;28;20283;-73
2023/10/11 08:34:26;;;;;;;177.87;168.47;;;17.20;92.10;;;;;;5045758;28;20291;-72
2023/10/11 08:36:56;;;;;;;100.77;95.50;;;17.20;91.80;;;;;;5051232;28;20343;-72
2023/10/11 08:39:45;;;;;;;115.03;108.87;;;17.20;92.40;;;;;;5053663;28;20286;-73
2023/10/11 08:42:22;;;;;;;101.23;96.07;;;17.20;92.60;;;;;;5041501;28;20275;-72
2023/10/11 08:44:49;;;;;;;200.70;187.80;;;17.30;92.60;;;;;;5049079;28;20757;-72
2023/10/11 08:47:19;;;;;;;104.50;99.03;;;17.30;92.50;;;;;;5053716;28;20343;-72
2023/10/11 08:49:49;;;;;;;148.97;141.30;;;17.40;92.50;;;;;;5043780;28;20850;-72
2023/10/11 08:52:22;;;;;;;315.00;289.53;;;17.50;92.50;;;;;;5041881;28;20288;-72
2023/10/11 08:54:49;;;;;;;221.43;207.90;;;17.60;91.80;;;;;;5042888;28;20756;-72
2023/10/11 08:57:23;;;;;;;127.73;121.07;;;17.70;91.30;;;;;;5031496;28;20279;-72
2023/10/11 09:00:03;;;;;;;210.40;199.03;;;17.80;91.50;;;;;;5049984;28;20450;-72
2023/10/11 09:02:33;;;;;;;139.50;131.27;;;17.80;91.30;;;;;;5047281;28;20286;-73
2023/10/11 09:05:06;;;;;;;194.50;182.90;;;17.80;91.60;;;;;;5049306;28;20315;-72
2023/10/11 09:07:45;;;;;;;180.20;171.33;;;17.80;91.10;;;;;;5048952;28;20041;-72
2023/10/11 09:10:30;;;;;;;107.93;101.93;;;17.90;91.30;;;;;;5048801;28;20033;-72
2023/10/11 09:12:57;;;;;;;162.32;153.40;;;18.00;91.30;;;;;;5047063;28;20120;-72
2023/10/11 09:15:43;;;;;;;155.50;146.63;;;18.10;90.70;;;;;;5047004;28;20033;-72
2023/10/11 09:18:12;;;;;;;;;;;18.20;90.20;;;;;;5047460;28;20055;-72
2023/10/11 09:20:42;;;;;;;162.70;152.87;;;18.30;90.10;;;;;;5038196;28;19975;-72
2023/10/11 09:23:11;;;;;;;260.73;246.87;;;18.30;89.60;;;;;;5046675;28;20063;-72
2023/10/11 09:25:58;;;;;;;104.03;98.50;;;18.40;89.80;;;;;;5048768;28;20477;-72
2023/10/11 09:28:26;;;;;;;839.53;780.63;;;18.40;89.70;;;;;;5046788;28;20091;-72
2023/10/11 09:31:12;;;;;;;636.00;597.33;;;18.60;89.30;;;;;;5044588;28;20133;-72
2023/10/11 09:33:51;;;;;;;556.20;522.17;;;18.70;88.00;;;;;;5042522;28;20626;-72
2023/10/11 09:36:24;;;;;;;118.57;112.03;;;18.70;87.90;;;;;;5046280;28;20036;-72
2023/10/11 09:38:56;;;;;;;203.63;191.47;;;18.70;87.40;;;;;;5039004;28;20047;-72
2023/10/11 09:41:38;;;;;;;217.93;204.93;;;18.60;87.30;;;;;;5027960;28;20043;-73
2023/10/11 09:44:05;;;;;;;108.50;102.63;;;18.60;87.40;;;;;;5025970;28;20045;-72
2023/10/11 09:46:33;;;;;;;253.50;236.10;;;18.60;87.50;;;;;;5048894;28;20033;-73
2023/10/11 09:49:02;;;;;;;78.93;74.83;;;18.60;87.00;;;;;;5049704;28;20059;-72
2023/10/11 09:51:29;;;;;;;123.30;117.13;;;18.60;87.60;;;;;;5030014;28;20120;-72
2023/10/11 09:54:01;;;;;;;124.87;117.97;;;18.60;87.80;;;;;;5047395;28;20508;-73
2023/10/11 09:56:57;;;;;;;131.33;124.67;;;18.60;88.50;;;;;;5045718;28;20052;-72
2023/10/11 09:59:35;;;;;;;106.80;101.18;;;18.40;89.20;;;;;;5049939;28;20040;-72
2023/10/11 10:02:12;;;;;;;153.37;145.33;;;18.30;89.50;;;;;;5045068;28;20049;-72
2023/10/11 10:04:49;;;;;;;140.17;132.03;;;18.20;89.70;;;;;;5049253;28;20116;-72
2023/10/11 10:07:21;;;;;;;81.20;76.73;;;18.20;89.60;;;;;;5025373;28;20051;-72
2023/10/11 10:09:53;;;;;;;114.20;107.60;;;18.20;89.80;;;;;;5047445;28;20076;-72
2023/10/11 10:12:25;;;;;;;89.10;84.57;;;18.30;89.80;;;;;;5030573;28;20484;-72
2023/10/11 10:15:07;;;;;;;149.83;141.73;;;18.30;90.00;;;;;;5030912;28;20451;-72
2023/10/11 10:17:34;;;;;;;199.77;187.23;;;18.40;90.10;;;;;;5029308;28;20068;-73
2023/10/11 10:20:32;;;;;;;165.33;156.10;;;18.60;89.40;;;;;;5039913;28;20051;-73
2023/10/11 10:23:16;;;;;;;93.77;89.00;;;18.80;87.90;;;;;;5050011;28;20048;-73
2023/10/11 10:25:47;;;;;;;113.90;108.00;;;18.90;87.60;;;;;;5041306;28;20055;-73
2023/10/11 10:28:45;;;;;;;230.47;216.43;;;19.10;88.10;;;;;;5048144;28;20041;-73
2023/10/11 10:31:16;;;;;;;171.33;161.70;;;19.30;86.40;;;;;;5047662;28;20068;-73
2023/10/11 10:33:50;;;;;;;214.30;199.77;;;19.40;85.90;;;;;;5050737;28;20048;-74
2023/10/11 10:36:21;;;;;;;155.87;148.47;;;19.50;85.90;;;;;;5042161;28;20060;-73
2023/10/11 10:41:40;;;;;;;190.30;180.87;;;19.90;83.90;;;;;;5044097;28;20041;-73
2023/10/11 10:44:11;;;;;;;142.30;135.63;;;19.90;83.10;;;;;;5026419;28;20048;-73
2023/10/11 10:46:37;;;;;;;163.87;155.63;;;19.70;83.40;;;;;;5047258;28;20040;-74
2023/10/11 10:49:03;;;;;;;183.00;173.83;;;19.60;83.40;;;;;;5031917;28;20466;-73
2023/10/11 10:51:35;;;;;;;181.23;172.77;;;19.50;84.10;;;;;;5023612;28;20103;-74
2023/10/11 10:54:44;;;;;;;216.37;203.77;;;19.40;84.60;;;;;;5046930;28;20044;-73
2023/10/11 10:56:53;;;;;;;171.33;162.07;;;19.50;85.20;;;;;;5035934;28;20404;-73
2023/10/11 10:59:25;;;;;;;303.93;277.57;;;19.50;85.10;;;;;;5046909;28;20052;-73
2023/10/11 11:01:52;;;;;;;147.13;140.33;;;19.60;84.30;;;;;;5048345;28;20527;-73
2023/10/11 11:04:24;;;;;;;392.70;363.43;;;19.80;84.50;;;;;;5046281;28;20128;-73
2023/10/11 11:06:52;;;;;;;542.70;485.40;;;20.00;84.20;;;;;;5044734;28;20069;-74
2023/10/11 11:09:28;;;;;;;241.87;228.77;;;20.10;82.20;;;;;;5049187;28;20037;-73
2023/10/11 11:12:20;;;;;;;305.30;278.63;;;20.10;82.50;;;;;;5037627;28;20408;-73
2023/10/11 11:14:56;;;;;;;339.13;318.23;;;20.00;82.30;;;;;;5022997;28;20045;-73
2023/10/11 11:17:23;;;;;;;242.10;226.33;;;19.90;82.80;;;;;;5046359;28;20085;-73
2023/10/11 11:20:14;;;;;;;207.60;193.43;;;19.80;83.40;;;;;;5045642;28;20043;-73
2023/10/11 11:22:46;;;;;;;171.80;163.43;;;19.80;84.40;;;;;;5048945;28;20072;-73
2023/10/11 11:25:18;;;;;;;417.13;384.93;;;19.80;84.40;;;;;;5047531;28;20041;-73
2023/10/11 11:27:44;;;;;;;213.70;201.47;;;19.60;84.10;;;;;;5045744;28;20052;-73
2023/10/11 11:30:33;;;;;;;162.87;153.03;;;19.40;84.50;;;;;;5043984;28;20038;-73
2023/10/11 11:33:01;;;;;;;138.97;131.80;;;19.30;85.40;;;;;;5042823;28;20049;-73
2023/10/11 11:35:30;;;;;;;193.77;183.33;;;19.30;86.30;;;;;;5044636;28;20040;-73
2023/10/11 11:38:02;;;;;;;103.50;98.03;;;19.40;85.90;;;;;;5050038;28;20041;-73
2023/10/11 11:40:31;;;;;;;143.63;136.07;;;19.60;85.80;;;;;;5052047;28;20503;-74
2023/10/11 11:43:01;;;;;;;101.70;96.50;;;19.90;85.30;;;;;;5049148;28;20029;-73
2023/10/11 11:45:29;;;;;;;264.00;247.47;;;20.00;83.50;;;;;;5054266;28;20037;-74
2023/10/11 11:47:58;;;;;;;244.03;228.97;;;20.10;82.00;;;;;;5050922;28;20489;-74
2023/10/11 11:50:37;;;;;;;110.37;104.63;;;20.00;82.00;;;;;;5052004;28;20043;-73
2023/10/11 11:53:04;;;;;;;191.83;181.23;;;20.20;83.20;;;;;;5051683;28;20044;-74
2023/10/11 11:55:31;;;;;;;438.80;400.93;;;20.20;82.80;;;;;;5051194;28;20128;-73
2023/10/11 11:57:57;;;;;;;285.87;266.73;;;20.30;81.00;;;;;;5050487;28;20045;-74
2023/10/11 12:02:51;;;;;;;298.23;283.20;;;20.10;81.40;;;;;;5053139;28;20052;-73
2023/10/11 12:05:18;;;;;;;177.57;168.33;;;20.00;81.90;;;;;;5050292;28;20083;-73
2023/10/11 12:07:45;;;;;;;122.57;116.70;;;20.00;82.30;;;;;;5049969;28;20041;-73
2023/10/11 12:10:23;;;;;;;196.47;186.77;;;20.00;82.00;;;;;;5016804;28;20044;-74
2023/10/11 12:12:50;;;;;;;117.73;112.17;;;20.10;81.90;;;;;;5032709;28;20138;-73
2023/10/11 12:15:19;;;;;;;410.70;388.30;;;20.00;81.70;;;;;;5055399;28;20047;-73
2023/10/11 12:17:46;;;;;;;168.20;159.53;;;20.00;82.10;;;;;;5050017;28;20041;-74
2023/10/11 12:20:12;;;;;;;250.30;237.70;;;19.90;82.00;;;;;;5029340;28;20676;-73
2023/10/11 12:22:44;;;;;;;181.20;171.07;;;19.80;82.80;;;;;;5053155;28;20040;-74
2023/10/11 12:25:10;;;;;;;109.87;104.27;;;19.70;83.50;;;;;;5053637;28;20040;-73
2023/10/11 12:27:43;;;;;;;275.87;256.43;;;19.60;84.20;;;;;;5036294;28;20486;-73
2023/10/11 12:30:20;;;;;;;156.40;148.30;;;19.60;84.50;;;;;;5051321;28;20481;-73
2023/10/11 12:32:52;;;;;;;158.67;150.57;;;19.60;84.50;;;;;;5044381;28;20041;-74
2023/10/11 12:35:23;;;;;;;244.77;231.00;;;19.70;84.50;;;;;;5046130;28;20040;-73
2023/10/11 12:37:49;;;;;;;261.97;243.90;;;19.70;84.70;;;;;;5050111;28;20045;-73
2023/10/11 12:40:23;;;;;;;148.43;140.87;;;19.80;84.50;;;;;;5044455;28;20543;-74
2023/10/11 12:42:50;;;;;;;125.20;118.90;;;19.80;84.50;;;;;;5049254;28;20032;-73
2023/10/11 12:45:19;;;;;;;186.70;176.07;;;19.80;85.20;;;;;;5054400;28;20063;-73
2023/10/11 12:47:45;;;;;;;122.17;116.23;;;19.80;85.00;;;;;;5045583;28;20043;-73
2023/10/11 12:50:13;;;;;;;137.37;130.63;;;19.80;85.20;;;;;;5029408;28;20029;-73
2023/10/11 12:52:40;;;;;;;192.97;183.30;;;19.80;84.10;;;;;;5053761;28;20385;-74
2023/10/11 12:55:07;;;;;;;202.90;192.63;;;19.80;84.40;;;;;;5046863;28;20041;-74
2023/10/11 12:57:38;;;;;;;259.23;246.83;;;19.70;84.60;;;;;;5052542;28;20047;-73
2023/10/11 13:02:58;;;;;;;179.97;171.00;;;19.50;85.90;;;;;;5041150;28;20135;-71
2023/10/11 13:05:26;;;;;;;136.47;129.43;;;19.50;86.80;;;;;;5050969;28;20688;-72
2023/10/11 13:07:56;;;;;;;184.43;175.30;;;19.50;86.50;;;;;;5050052;28;20053;-71
2023/10/11 13:10:22;;;;;;;141.50;134.50;;;19.60;87.10;;;;;;5047227;28;20185;-71
2023/10/11 13:12:53;;;;;;;121.90;115.77;;;19.60;86.50;;;;;;5045312;28;20115;-71
2023/10/11 13:15:24;;;;;;;297.97;211.27;;;19.70;86.10;;;;;;5047520;28;20124;-71
2023/10/11 13:17:51;;;;;;;151.47;143.23;;;19.70;85.50;;;;;;5048907;28;20049;-71
2023/10/11 13:20:19;;;;;;;290.87;271.17;;;19.60;86.00;;;;;;5047300;28;20036;-71
2023/10/11 13:22:47;;;;;;;144.10;137.20;;;19.70;86.10;;;;;;5058833;28;20075;-71
2023/10/11 13:25:23;;;;;;;210.77;198.13;;;19.80;86.50;;;;;;5046108;28;20075;-71
2023/10/11 13:27:54;;;;;;;236.20;222.10;;;20.00;85.50;;;;;;5048475;28;20448;-72
2023/10/11 13:30:23;;;;;;;270.77;251.77;;;20.00;84.50;;;;;;5048792;28;20628;-71
2023/10/11 13:32:57;;;;;;;276.07;261.03;;;20.00;84.20;;;;;;5046431;28;20106;-71
2023/10/11 13:35:23;;;;;;;190.90;180.20;;;20.00;84.00;;;;;;5046019;28;20037;-72
2023/10/11 13:37:50;;;;;;;177.80;169.07;;;20.00;83.90;;;;;;5047312;28;20039;-71